createdAt,value
2023-03-23T15:59:44.743Z,14.95
2023-03-23T16:02:23.043Z,12.93
2023-03-23T16:04:52.421Z,13.30
2023-03-23T16:07:25.405Z,19.20
2023-03-23T16:09:53.863Z,18.95
2023-03-23T16:12:22.303Z,15.93
2023-03-23T16:14:50.775Z,14.75
2023-03-23T16:17:21.962Z,14.88
2023-03-23T16:19:50.651Z,13.05
2023-03-23T16:22:19.281Z,18.67
2023-03-23T16:24:47.910Z,19.45
2023-03-23T16:27:17.220Z,11.63
2023-03-23T16:30:03.225Z,12.25
2023-03-23T16:35:01.543Z,11.57
2023-03-23T16:37:33.452Z,16.02
2023-03-23T16:40:02.170Z,11.35
2023-03-23T16:42:30.818Z,6.60
2023-03-23T16:44:59.203Z,7.82
2023-03-23T16:47:28.008Z,7.63
2023-03-23T16:49:57.593Z,13.10
2023-03-23T16:52:26.171Z,11.10
2023-03-23T16:54:54.577Z,9.52
2023-03-23T16:57:23.081Z,9.93
2023-03-23T16:59:51.579Z,13.10
2023-03-23T17:02:20.095Z,8.00
2023-03-23T17:04:48.761Z,12.05
2023-03-23T17:07:18.413Z,11.07
2023-03-23T17:09:47.035Z,12.60
2023-03-23T17:12:15.535Z,13.88
2023-03-23T17:14:43.926Z,13.05
2023-03-23T17:17:12.743Z,16.35
2023-03-23T17:19:41.402Z,18.02
2023-03-23T17:22:09.859Z,12.80
2023-03-23T17:24:39.911Z,13.40
2023-03-23T17:27:08.457Z,13.35
2023-03-23T17:29:36.960Z,16.60
2023-03-23T17:32:05.579Z,17.27
2023-03-23T17:34:33.998Z,18.07
2023-03-23T17:37:02.783Z,21.88
2023-03-23T17:39:31.904Z,15.83
2023-03-23T17:42:12.738Z,16.80
2023-03-23T17:44:41.913Z,18.53
2023-03-23T17:47:10.374Z,17.40
2023-03-23T17:49:38.854Z,21.33
2023-03-23T17:52:07.535Z,15.90
2023-03-23T17:54:36.032Z,15.23
2023-03-23T17:57:05.085Z,12.30
2023-03-23T17:59:34.984Z,14.77
2023-03-23T18:02:03.548Z,19.23
2023-03-23T18:04:32.058Z,17.63
2023-03-23T18:07:01.021Z,12.57
2023-03-23T18:09:29.424Z,15.02
2023-03-23T18:11:57.956Z,24.85
2023-03-23T18:14:26.360Z,11.77
2023-03-23T18:16:56.882Z,15.85
2023-03-23T18:19:25.459Z,16.50
2023-03-23T18:21:53.911Z,17.73
2023-03-23T18:24:24.003Z,14.45
2023-03-23T18:26:52.573Z,14.68
2023-03-23T18:29:21.155Z,17.20
2023-03-23T18:31:49.564Z,14.65
2023-03-23T18:34:19.318Z,16.33
2023-03-23T18:36:47.922Z,14.70
2023-03-23T18:39:16.533Z,14.90
2023-03-23T18:41:44.989Z,9.95
2023-03-23T18:44:13.426Z,18.45
2023-03-23T18:46:42.014Z,20.05
2023-03-23T18:49:10.495Z,15.85
2023-03-23T18:51:40.347Z,20.40
2023-03-23T18:54:08.947Z,19.63
2023-03-23T18:56:37.441Z,20.20
2023-03-23T18:59:06.581Z,22.52
2023-03-23T19:01:35.106Z,17.48
2023-03-23T19:04:07.027Z,14.48
2023-03-23T19:06:36.178Z,17.40
2023-03-23T19:09:06.443Z,22.50
2023-03-23T19:11:34.984Z,21.23
2023-03-23T19:14:03.964Z,16.45
2023-03-23T19:16:36.073Z,18.92
2023-03-23T19:19:06.120Z,14.88
2023-03-23T19:21:34.769Z,20.98
2023-03-23T19:24:03.491Z,13.65
2023-03-23T19:26:37.642Z,16.15
2023-03-23T19:31:39.176Z,12.75
2023-03-23T19:34:08.754Z,15.05
2023-03-23T19:36:37.814Z,17.85
2023-03-23T19:39:07.531Z,14.65
2023-03-23T19:41:38.082Z,15.60
2023-03-23T19:44:07.906Z,17.05
2023-03-23T19:46:36.399Z,17.30
2023-03-23T19:49:06.221Z,14.25
2023-03-23T19:51:34.669Z,12.88
2023-03-23T19:54:03.172Z,15.10
2023-03-23T19:56:32.785Z,16.23
2023-03-23T19:59:03.143Z,10.15
2023-03-23T20:01:31.695Z,16.63
2023-03-23T20:04:02.189Z,14.18
2023-03-23T20:06:30.870Z,12.40
2023-03-23T20:09:00.617Z,12.75
2023-03-23T20:11:30.555Z,12.73
2023-03-23T20:13:59.322Z,10.60
2023-03-23T20:16:29.481Z,11.00
2023-03-23T20:19:00.108Z,9.45
2023-03-23T20:21:29.664Z,12.68
2023-03-23T20:23:59.216Z,11.23
2023-03-23T20:26:29.842Z,14.27
2023-03-23T20:28:58.398Z,10.90
2023-03-23T20:31:31.156Z,11.95
2023-03-23T20:34:02.555Z,15.82
2023-03-23T20:36:35.170Z,11.15
2023-03-23T20:39:05.310Z,12.25
2023-03-23T20:41:36.182Z,12.20
2023-03-23T20:44:05.116Z,11.32
2023-03-23T20:46:35.685Z,10.65
2023-03-23T20:49:05.342Z,13.98
2023-03-23T20:51:34.138Z,12.57
2023-03-23T20:54:03.865Z,13.70
2023-03-23T20:56:32.694Z,12.80
2023-03-23T20:59:01.757Z,6.40
2023-03-23T21:01:33.189Z,10.45
2023-03-23T21:04:04.129Z,13.15
2023-03-23T21:06:34.047Z,10.95
2023-03-23T21:09:02.523Z,10.50
2023-03-23T21:11:31.352Z,10.77
2023-03-23T21:13:59.890Z,11.98
2023-03-23T21:16:29.369Z,9.85
2023-03-23T21:18:58.155Z,12.95
2023-03-23T21:21:28.302Z,13.32
2023-03-23T21:23:57.546Z,15.35
2023-03-23T21:26:27.887Z,8.45
2023-03-23T21:28:59.825Z,8.80
2023-03-23T21:31:31.614Z,9.18
2023-03-23T21:34:00.412Z,11.48
2023-03-23T21:36:30.441Z,14.23
2023-03-23T21:38:59.104Z,8.00
2023-03-23T21:41:30.046Z,8.82
2023-03-23T21:44:11.101Z,11.63
2023-03-23T21:46:39.807Z,7.35
2023-03-23T21:49:10.104Z,9.88
2023-03-23T21:51:39.984Z,15.68
2023-03-23T21:54:09.190Z,9.15
2023-03-23T21:56:38.203Z,11.82
2023-03-23T21:59:07.713Z,7.85
2023-03-23T22:01:37.482Z,7.22
2023-03-23T22:04:06.927Z,9.88
2023-03-23T22:06:35.894Z,7.88
2023-03-23T22:09:06.547Z,7.28
2023-03-23T22:11:35.440Z,5.90
2023-03-23T22:14:04.728Z,10.65
2023-03-23T22:16:33.768Z,8.50
2023-03-23T22:19:03.298Z,7.88
2023-03-23T22:21:32.299Z,7.57
2023-03-23T22:24:01.952Z,6.32
2023-03-23T22:26:32.427Z,6.70
2023-03-23T22:29:01.750Z,8.13
2023-03-23T22:31:34.140Z,8.40
2023-03-23T22:34:03.279Z,6.72
2023-03-23T22:36:33.583Z,7.13
2023-03-23T22:39:03.958Z,8.77
2023-03-23T22:41:36.870Z,6.20
2023-03-23T22:44:06.180Z,8.65
2023-03-23T22:46:34.738Z,5.20
2023-03-23T22:49:03.196Z,6.25
2023-03-23T22:51:32.025Z,6.80
2023-03-23T22:54:00.598Z,6.85
2023-03-23T22:56:29.238Z,6.07
2023-03-23T22:59:00.219Z,7.50
2023-03-23T23:01:29.338Z,6.85
2023-03-23T23:03:57.756Z,8.15
2023-03-23T23:06:26.616Z,4.45
2023-03-23T23:08:55.519Z,7.07
2023-03-23T23:11:25.986Z,5.60
2023-03-23T23:13:54.822Z,8.50
2023-03-23T23:16:26.329Z,6.38
2023-03-23T23:18:55.880Z,5.90
2023-03-23T23:21:26.145Z,6.95
2023-03-23T23:23:55.115Z,6.03
2023-03-23T23:26:24.232Z,7.95
2023-03-23T23:28:52.897Z,5.10
2023-03-23T23:31:27.268Z,8.43
2023-03-23T23:33:57.326Z,5.30
2023-03-23T23:36:30.487Z,6.07
2023-03-23T23:38:59.760Z,5.18
2023-03-23T23:41:30.008Z,4.65
2023-03-23T23:43:59.484Z,7.22
2023-03-23T23:46:30.786Z,7.97
2023-03-23T23:49:00.378Z,5.20
2023-03-23T23:51:29.428Z,4.82
2023-03-23T23:53:58.961Z,6.18
2023-03-23T23:56:27.875Z,6.07
2023-03-23T23:58:57.039Z,6.38
